Latest Weather Observations for Strahan

IDT60801

Issued at 1:01 am EST Saturday 1 August 2015 (issued every 30 minutes, with the page automatically refreshed every 10 minutes)

About weather observations | Map of weather stations | Latest weather observations for TAS | Other Formats
Station Details ID: 097072 Name: STRAHAN AERODROME Lat: -42.16 Lon: 145.29 Height: 21.0 m
Data from the previous 72 hours. | See also: Recent months at Strahan
Date/Time
EST
Temp
°C
App
Temp
°C
Dew
Point
Rel
Hum
%
Delta-T
°C
Wind Press
QNH
hPa
Press
MSL
hPa
Rain
since 9 am
mm
Dir
 
Spd
km/h
Gust
km/h
Spd
kts
Gust
kts
01/01:00am 7.5 -0.5 5.6 88 0.9 N 37 61 20 33 1000.9 1001.0 7.6
01/12:33am 7.7 -1.2 5.3 85 1.1 N 41 61 22 33 1001.4 1001.5 7.0
01/12:30am 7.6 -1.6 5.4 86 1.0 N 43 56 23 30 1001.3 1001.4 7.0
01/12:00am 7.8 -0.7 5.3 84 1.1 N 39 57 21 31 1002.0 1002.1 6.6
 
Date/Time
EST
Temp
°C
App
Temp
°C
Dew
Point
Rel
Hum
%
Delta-T
°C
Wind Press
QNH
hPa
Press
MSL
hPa
Rain
since 9 am
mm
Dir
 
Spd
km/h
Gust
km/h
Spd
kts
Gust
kts
31/11:30pm 8.0 -0.2 4.9 81 1.4 N 37 56 20 30 1002.9 1003.0 6.4
31/11:18pm 8.1 0.3 5.0 81 1.4 N 35 54 19 29 1003.1 1003.2 6.4
31/11:00pm 8.1 0.1 5.6 84 1.1 N 37 54 20 29 1003.7 1003.8 6.4
31/10:31pm 8.0 0.8 6.0 87 0.9 N 33 54 18 29 1004.5 1004.6 6.2
31/10:30pm 8.0 1.0 6.0 87 0.9 N 32 46 17 25 1004.5 1004.6 6.2
31/10:05pm 7.7 1.5 6.0 89 0.8 N 28 46 15 25 1005.1 1005.2 6.0
31/10:00pm 7.7 1.5 6.0 89 0.8 N 28 37 15 20 1005.3 1005.4 6.0
31/09:30pm 8.2 1.4 5.3 82 1.3 N 30 43 16 23 1006.0 1006.1 5.4
31/09:00pm 8.0 1.6 5.3 83 1.2 N 28 41 15 22 1006.7 1006.8 5.4
31/08:30pm 7.8 1.4 5.1 83 1.2 N 28 41 15 22 1006.9 1007.0 5.4
31/08:00pm 7.7 1.3 5.0 83 1.2 N 28 37 15 20 1008.0 1008.1 5.4
31/07:30pm 7.7 1.3 5.2 84 1.1 N 28 41 15 22 1008.7 1008.8 5.4
31/07:00pm 7.3 1.3 5.3 87 0.9 N 26 37 14 20 1009.1 1009.2 5.4
31/06:30pm 7.2 0.8 5.3 88 0.8 N 28 37 15 20 1009.1 1009.2 5.4
31/06:17pm 7.3 0.9 5.4 88 0.8 N 28 46 15 25 1009.3 1009.4 5.4
31/06:00pm 7.1 1.2 5.6 90 0.7 N 26 33 14 18 1009.6 1009.7 5.4
31/05:51pm 7.1 1.2 5.6 90 0.7 N 26 35 14 19 1009.6 1009.7 5.4
31/05:39pm 7.3 0.7 5.9 91 0.6 N 30 43 16 23 1009.9 1010.0 5.2
31/05:30pm 7.2 1.7 5.8 91 0.6 N 24 33 13 18 1010.1 1010.2 4.8
31/05:29pm 7.2 1.7 5.8 91 0.6 N 24 33 13 18 1010.1 1010.2 4.8
31/05:16pm 7.5 1.3 6.3 92 0.5 NNW 28 46 15 25 1010.0 1010.1 4.8
31/05:06pm 7.5 2.0 6.1 91 0.6 N 24 33 13 18 1010.3 1010.4 4.4
31/05:00pm 7.5 2.0 6.1 91 0.6 N 24 33 13 18 1010.0 1010.1 4.0
31/04:58pm 7.5 2.0 6.1 91 0.6 N 24 35 13 19 1010.0 1010.1 4.0
31/04:52pm 7.6 1.8 6.1 90 0.7 NNW 26 35 14 19 1010.2 1010.3 4.0
31/04:36pm 7.7 1.9 6.3 91 0.6 NNW 26 39 14 21 1010.5 1010.6 3.8
31/04:30pm 8.0 1.5 6.6 91 0.6 NNW 30 48 16 26 1010.5 1010.6 2.8
31/04:23pm 8.1 1.6 6.7 91 0.6 NNW 30 48 16 26 1010.3 1010.4 2.6
31/04:02pm 7.9 2.3 5.4 84 1.1 N 24 37 13 20 1010.5 1010.6 1.2
31/04:00pm 8.0 2.8 5.5 84 1.1 N 22 33 12 18 1010.5 1010.6 1.2
31/03:30pm 9.0 2.3 5.4 78 1.6 N 30 43 16 23 1010.9 1011.0 1.0
31/03:00pm 9.2 2.7 6.3 82 1.3 NNW 30 50 16 27 1011.2 1011.3 0.8
31/02:59pm 9.1 2.4 5.7 79 1.5 NNW 30 50 16 27 1011.2 1011.3 0.8
31/02:30pm 9.4 2.2 5.2 75 1.9 NNW 32 48 17 26 1011.7 1011.8 0.8
31/02:10pm 9.8 1.9 4.4 69 2.4 NW 35 54 19 29 1011.7 1011.8 0.6
31/02:00pm 9.3 2.1 5.1 75 1.9 NW 32 44 17 24 1011.9 1012.0 0.6
31/01:30pm 10.0 2.1 4.6 69 2.4 NNW 35 46 19 25 1012.3 1012.4 0.6
31/01:00pm 9.4 2.7 5.6 77 1.7 NW 30 46 16 25 1012.9 1013.0 0.6
31/12:38pm 8.3 2.0 5.6 83 1.2 NW 28 48 15 26 1013.4 1013.5 0.6
31/12:30pm 8.3 2.0 5.6 83 1.2 NW 28 43 15 23 1013.5 1013.6 0.4
31/12:28pm 8.5 3.0 5.8 83 1.2 NW 24 35 13 19 1013.5 1013.6 0.4
31/12:14pm 7.7 0.0 5.2 84 1.1 NW 35 57 19 31 1014.0 1014.1 0.4
31/12:08pm 9.2 1.7 4.2 71 2.2 NW 33 57 18 31 1013.9 1014.0 0.2
31/12:00pm 10.4 3.7 5.8 73 2.1 NNW 30 41 16 22 1013.9 1014.0 0.2
31/11:30am 8.0 0.5 4.6 79 1.5 WNW 33 44 18 24 1014.4 1014.5 0.2
31/11:00am 8.6 2.9 4.8 77 1.7 NW 24 30 13 16 1014.6 1014.7 0.2
31/10:43am 8.7 3.3 6.2 84 1.1 NW 24 33 13 18 1014.6 1014.7 0.2
31/10:30am 7.3 0.0 4.4 82 1.3 NW 32 56 17 30 1014.7 1014.8 0.2
31/10:28am 7.4 0.0 4.0 79 1.5 NW 32 56 17 30 1014.7 1014.8 0.2
31/10:25am 8.3 1.6 3.9 74 1.9 NW 28 56 15 30 1014.7 1014.8 0.0
31/10:00am 9.0 2.7 3.6 69 2.3 NW 26 35 14 19 1014.6 1014.7 0.0
31/09:30am 7.9 3.7 3.6 74 1.8 NNW 15 28 8 15 1014.8 1014.9 0.0
31/09:00am 7.1 3.5 5.1 87 0.9 NW 13 19 7 10 1015.1 1015.2 14.0
31/08:30am 7.5 2.2 3.0 73 1.9 W 20 30 11 16 1014.9 1015.0 13.8
31/08:00am 6.9 2.3 3.5 79 1.4 W 17 24 9 13 1015.0 1015.1 13.8
31/07:30am 6.7 1.4 3.1 78 1.5 NW 20 32 11 17 1014.8 1014.9 13.8
31/07:08am 7.3 2.8 4.4 82 1.3 NW 17 37 9 20 1014.6 1014.7 13.8
31/07:00am 5.6 2.1 3.3 85 1.0 NNW 11 15 6 8 1014.5 1014.6 13.8
31/06:30am 5.8 1.1 3.0 82 1.2 NW 17 20 9 11 1014.4 1014.5 13.8
31/06:00am 5.3 1.0 3.5 88 0.7 NW 15 28 8 15 1014.3 1014.4 13.8
31/05:30am 4.2 0.8 2.1 86 0.8 NNW 9 11 5 6 1014.1 1014.2 13.8
31/05:00am 5.7 0.4 2.0 77 1.5 NW 19 24 10 13 1014.0 1014.1 13.6
31/04:30am 5.7 1.4 0.7 70 2.0 WNW 13 17 7 9 1013.9 1014.0 13.6
31/04:00am 5.7 0.9 0.5 69 2.0 WSW 15 20 8 11 1013.7 1013.8 13.6
31/03:30am 6.4 1.6 2.5 76 1.6 SW 17 37 9 20 1013.9 1014.0 13.6
31/03:00am 6.4 1.0 2.3 75 1.7 WNW 20 28 11 15 1013.7 1013.8 13.6
31/02:41am 6.3 1.0 2.8 78 1.4 W 20 41 11 22 1013.8 1013.9 13.6
31/02:30am 4.9 1.5 1.6 79 1.3 W 9 13 5 7 1013.6 1013.7 13.6
31/02:00am 4.8 1.3 1.3 78 1.4 SW 9 15 5 8 1013.2 1013.3 13.6
31/01:30am 5.9 0.4 1.8 75 1.6 SW 20 32 11 17 1013.1 1013.2 13.6
31/01:00am 6.3 0.9 1.0 69 2.1 W 19 24 10 13 1012.9 1013.0 13.6
31/12:30am 6.1 0.5 1.2 71 1.9 WSW 20 32 11 17 1012.7 1012.8 13.6
31/12:00am 5.2 1.5 2.4 82 1.1 WSW 11 28 6 15 1012.3 1012.4 13.6
 
Date/Time
EST
Temp
°C
App
Temp
°C
Dew
Point
Rel
Hum
%
Delta-T
°C
Wind Press
QNH
hPa
Press
MSL
hPa
Rain
since 9 am
mm
Dir
 
Spd
km/h
Gust
km/h
Spd
kts
Gust
kts
30/11:32pm 6.5 -0.4 2.8 77 1.5 WSW 28 56 15 30 1012.0 1012.1 13.4
30/11:30pm 6.7 0.5 2.4 74 1.8 WSW 24 56 13 30 1011.9 1012.0 13.4
30/11:00pm 6.4 0.6 2.1 74 1.8 SW 22 35 12 19 1011.3 1011.4 13.4
30/10:30pm 7.0 -0.3 2.7 74 1.8 WSW 30 41 16 22 1010.8 1010.9 13.4
30/10:00pm 7.2 0.1 3.6 78 1.5 WSW 30 46 16 25 1010.2 1010.3 13.4
30/09:59pm 7.1 0.4 3.9 80 1.4 SW 28 46 15 25 1010.1 1010.2 13.4
30/09:30pm 6.9 0.9 3.3 78 1.5 SW 24 35 13 19 1009.4 1009.5 13.4
30/09:00pm 7.0 0.8 4.1 82 1.3 SW 26 39 14 21 1008.7 1008.8 13.4
30/08:30pm 6.6 0.2 3.4 80 1.3 SSW 26 41 14 22 1008.1 1008.2 13.2
30/08:00pm 7.3 -1.1 3.9 79 1.5 SW 37 46 20 25 1007.0 1007.1 13.2
30/07:49pm 7.9 1.2 5.5 85 1.1 SW 30 39 16 21 1006.6 1006.7 13.2
30/07:35pm 7.9 1.7 6.0 88 0.9 SW 28 46 15 25 1006.0 1006.1 13.2
30/07:30pm 8.2 1.2 6.2 87 0.9 SW 32 46 17 25 1005.3 1005.4 13.0
30/07:06pm 8.7 2.0 7.2 90 0.7 W 32 50 17 27 1004.5 1004.6 12.4
30/07:00pm 8.7 1.8 7.3 91 0.7 WNW 33 50 18 27 1004.4 1004.5 12.4
30/06:45pm 8.2 1.6 6.2 87 0.9 NW 30 41 16 22 1003.7 1003.8 11.8
30/06:30pm 8.4 2.7 6.5 88 0.9 NW 26 35 14 19 1003.6 1003.7 11.0
30/06:18pm 8.2 3.2 6.5 89 0.8 NW 22 35 12 19 1003.5 1003.6 11.0
30/06:16pm 8.3 3.0 6.6 89 0.8 NW 24 35 13 19 1003.4 1003.5 11.0
30/06:00pm 8.3 2.3 7.2 93 0.5 W 28 43 15 23 1003.7 1003.8 10.6
30/05:50pm 7.9 3.6 7.0 94 0.4 NW 19 30 10 16 1003.1 1003.2 10.2
30/05:46pm 7.7 2.8 6.8 94 0.4 NW 22 33 12 18 1002.9 1003.0 9.8
30/05:30pm 7.4 1.2 6.2 92 0.5 WNW 28 44 15 24 1002.9 1003.0 8.0
30/05:17pm 7.1 -2.1 5.6 90 0.7 WNW 43 63 23 34 1002.7 1002.8 6.0
30/05:13pm 9.3 0.7 8.1 92 0.6 NNW 43 59 23 32 1002.4 1002.5 3.2
30/05:12pm 9.3 0.7 8.1 92 0.6 NNW 43 57 23 31 1002.0 1002.1 3.2
30/05:00pm 9.0 1.0 7.6 91 0.7 N 39 50 21 27 1000.5 1000.6 2.8
30/04:50pm 8.9 1.6 7.4 90 0.7 N 35 50 19 27 1000.7 1000.8 2.6
30/04:30pm 8.7 2.0 7.3 91 0.7 N 32 46 17 25 1001.1 1001.2 2.2
30/04:11pm 8.6 1.8 7.1 90 0.7 N 32 50 17 27 1001.2 1001.3 1.8
30/04:00pm 8.7 1.7 7.0 89 0.8 N 33 44 18 24 1001.4 1001.5 1.4
30/03:30pm 8.9 2.1 6.9 87 0.9 N 32 50 17 27 1002.1 1002.2 0.8
30/03:13pm 9.0 2.1 6.6 85 1.1 N 32 50 17 27 1002.5 1002.6 0.8
30/03:00pm 9.1 2.2 6.4 83 1.3 N 32 46 17 25 1002.7 1002.8 0.6
30/02:30pm 9.3 2.2 6.6 83 1.3 N 33 52 18 28 1003.0 1003.1 0.6
30/02:02pm 9.4 1.9 6.5 82 1.3 N 35 54 19 29 1003.7 1003.8 0.4
30/02:00pm 9.3 1.8 6.4 82 1.3 N 35 52 19 28 1003.7 1003.8 0.4
30/01:30pm 9.4 1.2 6.5 82 1.3 N 39 69 21 37 1004.2 1004.3 0.2
30/01:00pm 10.9 2.5 5.4 69 2.5 N 39 67 21 36 1004.6 1004.7 0.0
30/12:30pm 11.1 1.9 5.4 68 2.6 N 43 63 23 34 1005.7 1005.8 0.0
30/12:00pm 11.2 1.8 5.3 67 2.7 N 44 69 24 37 1006.8 1006.9 0.0
30/11:30am 11.2 3.1 5.1 66 2.8 N 37 57 20 31 1007.3 1007.4 0.0
30/11:00am 10.9 2.4 5.2 68 2.6 N 39 61 21 33 1008.6 1008.7 0.0
30/10:34am 11.3 2.9 5.4 67 2.7 N 39 57 21 31 1009.1 1009.2 0.0
30/10:30am 11.2 2.8 5.5 68 2.6 N 39 56 21 30 1009.2 1009.3 0.0
30/10:07am 10.8 2.8 5.6 70 2.4 N 37 56 20 30 1009.9 1010.0 0.0
30/10:00am 10.7 2.2 5.3 69 2.5 N 39 56 21 30 1010.0 1010.1 0.0
30/09:30am 10.3 1.8 5.1 70 2.4 N 39 63 21 34 1010.8 1010.9 0.0
30/09:00am 10.1 2.0 5.1 71 2.3 N 37 61 20 33 1011.6 1011.7 7.2
30/08:30am 9.9 2.5 5.1 72 2.2 N 33 57 18 31 1012.1 1012.2 7.2
30/08:06am 9.7 2.6 5.3 74 2.0 N 32 50 17 27 1012.3 1012.4 7.2
30/08:00am 9.8 2.5 5.4 74 2.0 N 33 50 18 27 1012.5 1012.6 7.2
30/07:40am 9.7 2.9 5.3 74 2.0 N 30 50 16 27 1012.7 1012.8 7.2
30/07:30am 9.6 2.4 5.2 74 2.0 N 32 44 17 24 1012.9 1013.0 7.2
30/07:18am 9.6 3.2 5.4 75 1.9 N 28 46 15 25 1013.0 1013.1 7.2
30/07:00am 9.6 2.8 5.2 74 2.0 N 30 43 16 23 1013.2 1013.3 7.2
30/06:36am 9.6 3.2 5.0 73 2.1 N 28 50 15 27 1013.5 1013.6 7.2
30/06:30am 9.5 3.5 5.1 74 2.0 N 26 37 14 20 1013.6 1013.7 7.2
30/06:06am 9.5 3.0 4.9 73 2.1 N 28 46 15 25 1014.0 1014.1 7.2
30/06:00am 9.6 2.7 4.8 72 2.1 N 30 41 16 22 1014.2 1014.3 7.2
30/05:30am 9.7 2.9 5.3 74 2.0 N 30 43 16 23 1014.7 1014.8 7.2
30/05:00am 9.7 3.0 5.5 75 1.9 N 30 46 16 25 1015.4 1015.5 7.2
30/04:58am 9.6 3.2 5.4 75 1.9 N 28 46 15 25 1015.5 1015.6 7.2
30/04:30am 9.5 2.8 5.7 77 1.7 N 30 46 16 25 1015.9 1015.9 7.2
30/04:13am 9.5 3.2 5.9 78 1.7 N 28 46 15 25 1016.2 1016.2 7.2
30/04:00am 9.5 2.9 5.9 78 1.6 N 30 44 16 24 1016.4 1016.4 7.2
30/03:30am 9.6 3.4 6.0 78 1.7 N 28 37 15 20 1016.8 1016.8 7.2
30/03:00am 9.5 4.0 6.0 79 1.6 N 24 35 13 19 1017.4 1017.4 7.2
30/02:42am 9.7 3.5 6.1 78 1.7 N 28 46 15 25 1017.9 1017.9 7.2
30/02:30am 9.6 3.4 6.1 79 1.6 N 28 41 15 22 1018.0 1018.0 7.2
30/02:00am 9.4 3.6 6.1 80 1.5 N 26 41 14 22 1018.2 1018.2 7.2
30/01:30am 9.5 4.1 6.4 81 1.4 N 24 41 13 22 1018.7 1018.7 7.2
30/01:00am 9.4 4.5 6.7 83 1.3 N 22 35 12 19 1019.0 1019.0 7.2
30/12:30am 9.4 4.8 6.7 83 1.3 N 20 30 11 16 1019.5 1019.5 7.2
30/12:00am 9.3 5.0 6.9 85 1.1 N 19 28 10 15 1020.0 1020.0 7.2
 
Date/Time
EST
Temp
°C
App
Temp
°C
Dew
Point
Rel
Hum
%
Delta-T
°C
Wind Press
QNH
hPa
Press
MSL
hPa
Rain
since 9 am
mm
Dir
 
Spd
km/h
Gust
km/h
Spd
kts
Gust
kts
29/11:30pm 9.2 5.2 6.8 85 1.1 N 17 24 9 13 1020.4 1020.4 7.2
29/11:00pm 9.1 5.2 7.1 87 0.9 N 17 26 9 14 1020.7 1020.7 7.2
29/10:30pm 8.9 5.8 7.2 89 0.8 NNE 13 20 7 11 1021.1 1021.1 7.2
29/10:00pm 9.1 5.6 7.4 89 0.8 N 15 28 8 15 1021.5 1021.5 7.2
29/09:30pm 9.2 4.8 7.6 90 0.8 N 20 28 11 15 1021.8 1021.8 7.2
29/09:00pm 9.2 4.1 7.8 91 0.7 N 24 33 13 18 1022.2 1022.2 7.2
29/08:42pm 9.3 3.9 8.1 92 0.6 N 26 41 14 22 1022.3 1022.3 7.0
29/08:30pm 9.4 4.5 8.3 93 0.5 N 24 33 13 18 1022.4 1022.4 7.0
29/08:22pm 9.3 4.8 8.4 94 0.4 N 22 30 12 16 1022.5 1022.5 7.0
29/08:03pm 9.3 3.6 8.4 94 0.4 NNW 28 37 15 20 1022.4 1022.4 7.0
29/08:00pm 9.3 3.6 8.4 94 0.4 NNW 28 37 15 20 1022.5 1022.5 7.0
29/07:30pm 9.6 3.6 8.8 95 0.4 NNW 30 39 16 21 1022.7 1022.7 6.0
29/07:00pm 9.8 4.2 8.9 94 0.4 NNW 28 35 15 19 1022.6 1022.6 4.6
29/06:30pm 9.8 3.3 8.9 94 0.4 NW 33 48 18 26 1022.6 1022.6 4.4
29/06:00pm 9.9 5.1 8.8 93 0.5 NNW 24 35 13 19 1022.5 1022.5 4.0
29/05:42pm 9.9 4.3 8.7 92 0.6 NNW 28 48 15 26 1022.5 1022.5 3.8
29/05:30pm 9.9 4.3 8.8 93 0.5 NNW 28 39 15 21 1022.5 1022.5 3.2
29/05:04pm 9.9 5.8 8.8 93 0.5 N 20 30 11 16 1022.9 1022.9 2.6
29/05:01pm 10.0 6.0 8.9 93 0.5 N 20 30 11 16 1022.8 1022.8 2.2
29/05:00pm 10.0 6.0 8.9 93 0.5 N 20 30 11 16 1022.8 1022.8 2.0
29/04:42pm 10.0 3.5 8.9 93 0.5 NNW 33 48 18 26 1023.2 1023.2 1.8
29/04:31pm 10.5 5.0 9.3 92 0.6 NNW 28 48 15 26 1023.1 1023.1 1.6
29/04:30pm 10.5 5.4 9.1 91 0.7 NNW 26 48 14 26 1023.1 1023.1 1.6
29/04:26pm 10.6 6.8 9.0 90 0.8 N 19 37 10 20 1023.1 1023.1 1.6
29/04:07pm 10.5 6.5 9.1 91 0.7 N 20 26 11 14 1023.4 1023.4 1.4
29/04:00pm 10.4 6.3 8.8 90 0.8 N 20 28 11 15 1023.5 1023.5 1.4
29/03:46pm 10.8 7.0 8.9 88 0.9 NNW 19 33 10 18 1023.7 1023.7 1.0
29/03:30pm 11.2 7.4 8.9 86 1.1 N 19 26 10 14 1023.8 1023.8 0.6
29/03:00pm 11.1 5.9 8.7 85 1.2 N 26 37 14 20 1024.0 1024.0 0.6
29/02:30pm 11.1 5.1 8.7 85 1.2 NNW 30 43 16 23 1024.4 1024.4 0.6
29/02:00pm 11.3 6.5 8.9 85 1.2 NNW 24 30 13 16 1024.9 1024.9 0.6
29/01:30pm 10.8 6.5 9.2 90 0.8 NNW 22 33 12 18 1025.3 1025.3 0.6
29/01:21pm 10.6 6.0 9.5 93 0.6 NNW 24 33 13 18 1025.4 1025.4 0.6
29/01:04pm 10.2 4.6 8.8 91 0.7 NNW 28 46 15 25 1025.8 1025.8 0.6
29/01:01pm 10.4 5.9 8.5 88 0.9 NNW 22 46 12 25 1025.8 1025.8 0.6
29/01:00pm 10.8 6.8 8.9 88 0.9 NNW 20 35 11 19 1025.8 1025.8 0.6
29/12:35pm 10.6 6.3 9.4 92 0.6 NNW 22 32 12 17 1026.3 1026.3 0.4
29/12:30pm 10.5 5.8 9.1 91 0.7 NNW 24 33 13 18 1026.4 1026.4 0.4
29/12:18pm 10.6 5.0 8.9 89 0.8 NNW 28 35 15 19 1026.6 1026.6 0.4
29/12:00pm 11.0 6.2 8.9 87 1.0 N 24 32 13 17 1026.8 1026.8 0.4
29/11:30am 11.2 7.5 9.5 89 0.9 N 19 24 10 13 1027.2 1027.2 0.4
29/11:14am 10.8 6.8 9.2 90 0.8 N 20 28 11 15 1027.5 1027.5 0.4
29/11:03am 10.6 6.7 9.4 92 0.6 N 20 32 11 17 1027.6 1027.6 0.4
29/11:01am 10.5 6.2 9.3 92 0.6 N 22 32 12 17 1027.6 1027.6 0.4
29/11:00am 10.4 6.1 9.2 92 0.6 N 22 32 12 17 1027.7 1027.7 0.4
29/10:42am 9.8 5.3 8.4 91 0.7 NNW 22 43 12 23 1027.9 1027.9 0.2
29/10:30am 10.1 6.8 8.2 88 0.9 N 15 20 8 11 1027.9 1027.9 0.2
29/10:00am 9.8 6.2 8.2 90 0.8 N 17 24 9 13 1028.0 1028.0 0.2
29/09:46am 9.6 6.8 8.5 93 0.5 N 13 19 7 10 1028.0 1028.0 0.2
29/09:31am 8.8 6.6 7.9 94 0.4 NNE 9 15 5 8 1028.0 1028.0 0.0
29/09:30am 8.7 6.5 7.8 94 0.4 NNE 9 13 5 7 1028.1 1028.1 0.0
29/09:13am 8.5 5.5 7.6 94 0.4 N 13 20 7 11 1028.2 1028.2 0.0
29/09:11am 8.4 5.4 7.5 94 0.4 N 13 20 7 11 1028.3 1028.3 0.0
29/09:04am 8.2 5.5 7.3 94 0.4 N 11 17 6 9 1028.3 1028.3 0.0
29/09:00am 8.1 5.4 7.2 94 0.4 N 11 17 6 9 1028.4 1028.4 6.2
29/08:42am 7.9 4.7 7.0 94 0.4 N 13 19 7 10 1028.6 1028.6 6.0
29/08:30am 7.7 5.3 6.8 94 0.4 NNE 9 15 5 8 1028.6 1028.6 6.0
29/08:00am 7.2 4.3 6.3 94 0.4 N 11 15 6 8 1028.8 1028.8 6.0
29/07:30am 7.2 4.2 6.1 93 0.5 NNE 11 15 6 8 1028.5 1028.5 6.0
29/07:19am 7.3 4.4 6.4 94 0.4 NNE 11 15 6 8 1028.6 1028.6 6.0
29/07:05am 7.5 4.6 6.6 94 0.4 N 11 15 6 8 1028.7 1028.7 5.8
29/07:00am 7.4 4.5 6.5 94 0.4 N 11 15 6 8 1028.7 1028.7 5.8
29/06:30am 7.4 4.5 6.5 94 0.4 NNE 11 15 6 8 1028.5 1028.5 5.8
29/06:00am 7.5 4.2 6.6 94 0.4 N 13 20 7 11 1028.5 1028.5 5.8
29/05:30am 7.3 4.3 6.2 93 0.5 NNE 11 15 6 8 1028.4 1028.4 5.8
29/05:00am 7.4 4.8 6.3 93 0.5 N 9 13 5 7 1028.4 1028.4 5.8
29/04:58am 7.4 4.5 6.3 93 0.5 N 11 15 6 8 1028.4 1028.4 5.8
29/04:41am 7.6 4.4 6.7 94 0.4 N 13 20 7 11 1028.4 1028.4 5.8
29/04:30am 7.4 4.1 6.3 93 0.5 NNE 13 17 7 9 1028.5 1028.5 5.6
29/04:00am 7.5 4.6 6.4 93 0.5 N 11 17 6 9 1028.6 1028.6 5.6
29/03:30am 8.1 4.9 7.0 93 0.5 NNE 13 17 7 9 1028.5 1028.5 5.6
29/03:00am 8.4 4.5 7.3 93 0.5 N 17 24 9 13 1028.9 1028.9 5.6
29/02:59am 8.4 4.5 7.3 93 0.5 N 17 24 9 13 1028.9 1028.9 5.6
29/02:44am 8.4 5.3 7.3 93 0.5 N 13 26 7 14 1029.0 1029.0 5.4
29/02:30am 8.2 5.1 7.1 93 0.5 N 13 19 7 10 1029.0 1029.0 5.2
29/02:00am 8.7 5.3 7.6 93 0.5 N 15 19 8 10 1029.0 1029.0 5.2
29/01:30am 8.8 6.2 7.7 93 0.5 N 11 20 6 11 1028.9 1028.9 5.2
29/01:17am 8.8 6.6 7.7 93 0.5 N 9 11 5 6 1029.0 1029.0 5.2

Other Formats:

Comma delimited format used in spreadsheet applications
http://www.bom.gov.au/fwo/IDT60801/IDT60801.94956.axf

JavaScript Object Notation format (JSON) in row-major order
http://www.bom.gov.au/fwo/IDT60801/IDT60801.94956.json